sensor_id;sensor_type;location;lat;lon;timestamp;P1;durP1;ratioP1;P2;durP2;ratioP2
18853;SDS011;9556;49.374;19.446;2022-09-09T00:02:04;1.58;;;1.13;;
18853;SDS011;9556;49.374;19.446;2022-09-09T00:04:37;0.93;;;0.82;;
18853;SDS011;9556;49.374;19.446;2022-09-09T00:07:05;0.80;;;0.80;;
18853;SDS011;9556;49.374;19.446;2022-09-09T00:09:39;1.45;;;1.13;;
18853;SDS011;9556;49.374;19.446;2022-09-09T00:12:10;1.25;;;1.00;;
18853;SDS011;9556;49.374;19.446;2022-09-09T00:14:39;1.67;;;1.00;;
18853;SDS011;9556;49.374;19.446;2022-09-09T00:17:11;0.90;;;0.90;;
18853;SDS011;9556;49.374;19.446;2022-09-09T00:19:44;1.13;;;1.02;;
18853;SDS011;9556;49.374;19.446;2022-09-09T00:22:16;1.10;;;1.00;;
18853;SDS011;9556;49.374;19.446;2022-09-09T00:24:44;1.30;;;0.95;;
18853;SDS011;9556;49.374;19.446;2022-09-09T00:27:14;1.73;;;1.00;;
18853;SDS011;9556;49.374;19.446;2022-09-09T00:29:44;1.25;;;0.90;;
18853;SDS011;9556;49.374;19.446;2022-09-09T00:32:13;1.20;;;1.10;;
18853;SDS011;9556;49.374;19.446;2022-09-09T00:34:47;1.33;;;0.90;;
18853;SDS011;9556;49.374;19.446;2022-09-09T00:37:14;0.73;;;0.70;;
18853;SDS011;9556;49.374;19.446;2022-09-09T00:39:42;1.15;;;0.88;;
18853;SDS011;9556;49.374;19.446;2022-09-09T00:42:14;2.20;;;1.00;;
18853;SDS011;9556;49.374;19.446;2022-09-09T00:44:46;1.70;;;0.70;;
18853;SDS011;9556;49.374;19.446;2022-09-09T00:47:23;1.00;;;0.82;;
18853;SDS011;9556;49.374;19.446;2022-09-09T00:49:56;1.08;;;0.98;;
18853;SDS011;9556;49.374;19.446;2022-09-09T00:52:28;1.40;;;1.00;;
18853;SDS011;9556;49.374;19.446;2022-09-09T00:55:02;1.17;;;0.80;;
18853;SDS011;9556;49.374;19.446;2022-09-09T00:57:30;1.17;;;0.80;;
18853;SDS011;9556;49.374;19.446;2022-09-09T01:00:15;0.98;;;0.85;;
18853;SDS011;9556;49.374;19.446;2022-09-09T01:02:45;1.25;;;0.95;;
18853;SDS011;9556;49.374;19.446;2022-09-09T01:05:18;1.23;;;1.00;;
18853;SDS011;9556;49.374;19.446;2022-09-09T01:07:47;0.80;;;0.80;;
18853;SDS011;9556;49.374;19.446;2022-09-09T01:10:17;1.00;;;0.90;;
18853;SDS011;9556;49.374;19.446;2022-09-09T01:12:48;1.40;;;0.90;;
18853;SDS011;9556;49.374;19.446;2022-09-09T01:15:16;1.42;;;0.90;;
18853;SDS011;9556;49.374;19.446;2022-09-09T01:17:53;0.77;;;0.77;;
18853;SDS011;9556;49.374;19.446;2022-09-09T01:20:25;1.10;;;1.00;;
18853;SDS011;9556;49.374;19.446;2022-09-09T01:28:33;1.67;;;1.00;;
18853;SDS011;9556;49.374;19.446;2022-09-09T01:31:02;1.15;;;1.02;;
18853;SDS011;9556;49.374;19.446;2022-09-09T01:33:30;1.23;;;0.85;;
18853;SDS011;9556;49.374;19.446;2022-09-09T01:35:57;0.90;;;0.80;;
18853;SDS011;9556;49.374;19.446;2022-09-09T01:38:27;1.10;;;0.70;;
18853;SDS011;9556;49.374;19.446;2022-09-09T01:40:54;2.55;;;0.80;;
18853;SDS011;9556;49.374;19.446;2022-09-09T01:43:23;0.90;;;0.88;;
18853;SDS011;9556;49.374;19.446;2022-09-09T01:45:52;0.70;;;0.70;;
18853;SDS011;9556;49.374;19.446;2022-09-09T01:48:20;1.50;;;0.82;;
18853;SDS011;9556;49.374;19.446;2022-09-09T01:50:48;0.90;;;0.80;;
18853;SDS011;9556;49.374;19.446;2022-09-09T01:53:15;2.50;;;0.68;;
18853;SDS011;9556;49.374;19.446;2022-09-09T01:55:44;2.45;;;0.80;;
18853;SDS011;9556;49.374;19.446;2022-09-09T01:58:17;2.55;;;0.60;;
18853;SDS011;9556;49.374;19.446;2022-09-09T02:00:48;0.80;;;0.70;;
18853;SDS011;9556;49.374;19.446;2022-09-09T02:03:21;0.70;;;0.70;;
18853;SDS011;9556;49.374;19.446;2022-09-09T02:05:52;0.70;;;0.70;;
18853;SDS011;9556;49.374;19.446;2022-09-09T02:08:23;0.73;;;0.70;;
18853;SDS011;9556;49.374;19.446;2022-09-09T02:10:53;2.17;;;0.80;;
18853;SDS011;9556;49.374;19.446;2022-09-09T02:13:22;0.98;;;0.75;;
18853;SDS011;9556;49.374;19.446;2022-09-09T02:15:51;0.93;;;0.70;;
18853;SDS011;9556;49.374;19.446;2022-09-09T02:18:22;1.42;;;0.82;;
18853;SDS011;9556;49.374;19.446;2022-09-09T02:20:50;1.13;;;0.80;;
18853;SDS011;9556;49.374;19.446;2022-09-09T02:23:18;0.80;;;0.70;;
18853;SDS011;9556;49.374;19.446;2022-09-09T02:25:46;0.70;;;0.70;;
18853;SDS011;9556;49.374;19.446;2022-09-09T02:28:14;1.08;;;0.68;;
18853;SDS011;9556;49.374;19.446;2022-09-09T02:30:42;0.93;;;0.80;;
18853;SDS011;9556;49.374;19.446;2022-09-09T02:33:12;0.82;;;0.70;;
18853;SDS011;9556;49.374;19.446;2022-09-09T02:35:42;0.73;;;0.70;;
18853;SDS011;9556;49.374;19.446;2022-09-09T02:38:10;1.33;;;0.65;;
18853;SDS011;9556;49.374;19.446;2022-09-09T02:40:38;0.85;;;0.70;;
18853;SDS011;9556;49.374;19.446;2022-09-09T02:43:05;0.88;;;0.70;;
18853;SDS011;9556;49.374;19.446;2022-09-09T02:45:34;0.80;;;0.80;;
18853;SDS011;9556;49.374;19.446;2022-09-09T02:48:04;1.10;;;0.70;;
18853;SDS011;9556;49.374;19.446;2022-09-09T02:50:33;1.45;;;0.70;;
18853;SDS011;9556;49.374;19.446;2022-09-09T02:53:05;1.40;;;0.70;;
18853;SDS011;9556;49.374;19.446;2022-09-09T02:55:37;2.45;;;0.80;;
18853;SDS011;9556;49.374;19.446;2022-09-09T02:58:05;1.75;;;0.80;;
18853;SDS011;9556;49.374;19.446;2022-09-09T03:00:33;0.80;;;0.80;;
18853;SDS011;9556;49.374;19.446;2022-09-09T03:03:02;1.60;;;0.70;;
18853;SDS011;9556;49.374;19.446;2022-09-09T03:05:29;1.00;;;0.70;;
18853;SDS011;9556;49.374;19.446;2022-09-09T03:07:56;0.90;;;0.90;;
18853;SDS011;9556;49.374;19.446;2022-09-09T03:10:25;0.77;;;0.70;;
18853;SDS011;9556;49.374;19.446;2022-09-09T03:12:52;2.10;;;0.88;;
18853;SDS011;9556;49.374;19.446;2022-09-09T03:15:20;0.70;;;0.70;;
18853;SDS011;9556;49.374;19.446;2022-09-09T03:17:47;0.60;;;0.60;;
18853;SDS011;9556;49.374;19.446;2022-09-09T03:20:14;1.05;;;0.80;;
18853;SDS011;9556;49.374;19.446;2022-09-09T03:22:41;1.20;;;0.80;;
18853;SDS011;9556;49.374;19.446;2022-09-09T03:25:10;1.92;;;0.70;;
18853;SDS011;9556;49.374;19.446;2022-09-09T03:27:38;0.90;;;0.80;;
18853;SDS011;9556;49.374;19.446;2022-09-09T03:30:06;1.10;;;0.70;;
18853;SDS011;9556;49.374;19.446;2022-09-09T03:32:33;1.02;;;0.80;;
18853;SDS011;9556;49.374;19.446;2022-09-09T03:35:00;0.60;;;0.52;;
18853;SDS011;9556;49.374;19.446;2022-09-09T03:37:27;0.70;;;0.70;;
18853;SDS011;9556;49.374;19.446;2022-09-09T03:39:54;0.80;;;0.80;;
18853;SDS011;9556;49.374;19.446;2022-09-09T03:42:21;0.73;;;0.73;;
18853;SDS011;9556;49.374;19.446;2022-09-09T03:44:50;0.80;;;0.70;;
18853;SDS011;9556;49.374;19.446;2022-09-09T03:47:17;0.80;;;0.70;;
18853;SDS011;9556;49.374;19.446;2022-09-09T03:49:44;1.98;;;0.80;;
18853;SDS011;9556;49.374;19.446;2022-09-09T03:52:11;0.80;;;0.70;;
18853;SDS011;9556;49.374;19.446;2022-09-09T03:54:39;0.68;;;0.68;;
18853;SDS011;9556;49.374;19.446;2022-09-09T03:57:07;0.70;;;0.70;;
18853;SDS011;9556;49.374;19.446;2022-09-09T03:59:35;0.70;;;0.60;;
18853;SDS011;9556;49.374;19.446;2022-09-09T04:02:03;0.93;;;0.60;;
18853;SDS011;9556;49.374;19.446;2022-09-09T04:04:30;0.90;;;0.70;;
18853;SDS011;9556;49.374;19.446;2022-09-09T04:06:57;1.42;;;0.80;;
18853;SDS011;9556;49.374;19.446;2022-09-09T04:09:25;1.10;;;0.80;;
18853;SDS011;9556;49.374;19.446;2022-09-09T04:11:52;1.20;;;0.75;;
18853;SDS011;9556;49.374;19.446;2022-09-09T04:14:20;2.03;;;0.88;;
18853;SDS011;9556;49.374;19.446;2022-09-09T04:16:47;1.25;;;0.98;;
18853;SDS011;9556;49.374;19.446;2022-09-09T04:19:16;2.10;;;0.70;;
18853;SDS011;9556;49.374;19.446;2022-09-09T04:21:43;1.23;;;0.80;;
18853;SDS011;9556;49.374;19.446;2022-09-09T04:24:10;1.67;;;0.80;;
18853;SDS011;9556;49.374;19.446;2022-09-09T04:26:37;1.38;;;0.82;;
18853;SDS011;9556;49.374;19.446;2022-09-09T04:29:04;1.40;;;0.90;;
18853;SDS011;9556;49.374;19.446;2022-09-09T04:31:33;1.85;;;0.80;;
18853;SDS011;9556;49.374;19.446;2022-09-09T04:34:00;1.15;;;0.85;;
18853;SDS011;9556;49.374;19.446;2022-09-09T04:36:31;1.00;;;0.80;;
18853;SDS011;9556;49.374;19.446;2022-09-09T04:38:59;1.13;;;0.80;;
18853;SDS011;9556;49.374;19.446;2022-09-09T04:41:27;1.33;;;0.90;;
18853;SDS011;9556;49.374;19.446;2022-09-09T04:43:56;1.83;;;0.73;;
18853;SDS011;9556;49.374;19.446;2022-09-09T04:46:24;2.83;;;0.80;;
18853;SDS011;9556;49.374;19.446;2022-09-09T04:48:52;1.98;;;0.93;;
18853;SDS011;9556;49.374;19.446;2022-09-09T04:51:19;1.50;;;0.90;;
18853;SDS011;9556;49.374;19.446;2022-09-09T04:53:47;3.92;;;0.85;;
18853;SDS011;9556;49.374;19.446;2022-09-09T04:56:16;2.08;;;0.88;;
18853;SDS011;9556;49.374;19.446;2022-09-09T04:58:43;2.13;;;0.80;;
18853;SDS011;9556;49.374;19.446;2022-09-09T05:01:12;2.88;;;1.10;;
18853;SDS011;9556;49.374;19.446;2022-09-09T05:03:40;4.55;;;0.90;;
18853;SDS011;9556;49.374;19.446;2022-09-09T05:06:08;5.57;;;1.00;;
18853;SDS011;9556;49.374;19.446;2022-09-09T05:08:35;2.33;;;0.80;;
18853;SDS011;9556;49.374;19.446;2022-09-09T05:11:11;3.05;;;0.88;;
18853;SDS011;9556;49.374;19.446;2022-09-09T05:13:39;4.70;;;1.02;;
18853;SDS011;9556;49.374;19.446;2022-09-09T05:16:06;2.35;;;1.00;;
18853;SDS011;9556;49.374;19.446;2022-09-09T05:18:36;1.33;;;0.80;;
18853;SDS011;9556;49.374;19.446;2022-09-09T05:21:03;3.15;;;1.05;;
18853;SDS011;9556;49.374;19.446;2022-09-09T05:23:31;1.83;;;0.90;;
18853;SDS011;9556;49.374;19.446;2022-09-09T05:25:59;6.18;;;1.00;;
18853;SDS011;9556;49.374;19.446;2022-09-09T05:28:27;6.88;;;1.33;;
18853;SDS011;9556;49.374;19.446;2022-09-09T05:30:56;11.93;;;1.60;;
18853;SDS011;9556;49.374;19.446;2022-09-09T05:33:23;2.47;;;1.42;;
18853;SDS011;9556;49.374;19.446;2022-09-09T05:35:54;2.25;;;1.50;;
18853;SDS011;9556;49.374;19.446;2022-09-09T05:38:22;2.70;;;1.23;;
18853;SDS011;9556;49.374;19.446;2022-09-09T05:40:50;4.78;;;1.48;;
18853;SDS011;9556;49.374;19.446;2022-09-09T05:43:17;1.55;;;1.00;;
18853;SDS011;9556;49.374;19.446;2022-09-09T05:45:46;2.33;;;1.30;;
18853;SDS011;9556;49.374;19.446;2022-09-09T05:48:13;2.80;;;1.10;;
18853;SDS011;9556;49.374;19.446;2022-09-09T05:50:41;6.75;;;1.30;;
18853;SDS011;9556;49.374;19.446;2022-09-09T05:53:10;1.50;;;0.80;;
18853;SDS011;9556;49.374;19.446;2022-09-09T05:55:37;4.85;;;1.00;;
18853;SDS011;9556;49.374;19.446;2022-09-09T05:58:04;2.22;;;1.10;;
18853;SDS011;9556;49.374;19.446;2022-09-09T06:00:31;2.70;;;0.90;;
18853;SDS011;9556;49.374;19.446;2022-09-09T06:03:00;7.32;;;1.02;;
18853;SDS011;9556;49.374;19.446;2022-09-09T06:05:27;6.22;;;0.95;;
18853;SDS011;9556;49.374;19.446;2022-09-09T06:07:54;5.50;;;1.10;;
18853;SDS011;9556;49.374;19.446;2022-09-09T06:10:21;1.33;;;1.00;;
18853;SDS011;9556;49.374;19.446;2022-09-09T06:12:48;1.77;;;0.85;;
18853;SDS011;9556;49.374;19.446;2022-09-09T06:15:16;4.63;;;1.17;;
18853;SDS011;9556;49.374;19.446;2022-09-09T06:17:43;3.22;;;1.00;;
18853;SDS011;9556;49.374;19.446;2022-09-09T06:20:11;1.55;;;1.00;;
18853;SDS011;9556;49.374;19.446;2022-09-09T06:22:39;2.95;;;0.90;;
18853;SDS011;9556;49.374;19.446;2022-09-09T06:25:07;3.58;;;1.20;;
18853;SDS011;9556;49.374;19.446;2022-09-09T06:27:34;10.73;;;1.30;;
18853;SDS011;9556;49.374;19.446;2022-09-09T06:30:02;5.85;;;1.13;;
18853;SDS011;9556;49.374;19.446;2022-09-09T06:32:29;9.73;;;1.10;;
18853;SDS011;9556;49.374;19.446;2022-09-09T06:35:00;22.20;;;1.52;;
18853;SDS011;9556;49.374;19.446;2022-09-09T06:37:28;13.52;;;1.10;;
18853;SDS011;9556;49.374;19.446;2022-09-09T06:39:56;10.27;;;1.05;;
18853;SDS011;9556;49.374;19.446;2022-09-09T06:42:23;9.05;;;2.03;;
18853;SDS011;9556;49.374;19.446;2022-09-09T06:44:50;8.40;;;1.30;;
18853;SDS011;9556;49.374;19.446;2022-09-09T06:47:17;8.75;;;1.42;;
18853;SDS011;9556;49.374;19.446;2022-09-09T06:49:48;3.15;;;1.02;;
18853;SDS011;9556;49.374;19.446;2022-09-09T06:52:15;10.20;;;1.20;;
18853;SDS011;9556;49.374;19.446;2022-09-09T06:54:44;4.63;;;1.00;;
18853;SDS011;9556;49.374;19.446;2022-09-09T06:57:11;1.42;;;0.82;;
18853;SDS011;9556;49.374;19.446;2022-09-09T06:59:38;5.10;;;1.20;;
18853;SDS011;9556;49.374;19.446;2022-09-09T07:02:07;20.25;;;2.30;;
18853;SDS011;9556;49.374;19.446;2022-09-09T07:04:34;8.70;;;1.23;;
18853;SDS011;9556;49.374;19.446;2022-09-09T07:07:02;5.03;;;1.02;;
18853;SDS011;9556;49.374;19.446;2022-09-09T07:09:29;4.32;;;1.25;;
18853;SDS011;9556;49.374;19.446;2022-09-09T07:11:58;6.40;;;0.95;;
18853;SDS011;9556;49.374;19.446;2022-09-09T07:14:25;8.95;;;1.38;;
18853;SDS011;9556;49.374;19.446;2022-09-09T07:16:52;7.53;;;1.00;;
18853;SDS011;9556;49.374;19.446;2022-09-09T07:19:19;7.85;;;1.30;;
18853;SDS011;9556;49.374;19.446;2022-09-09T07:21:46;10.50;;;1.02;;
18853;SDS011;9556;49.374;19.446;2022-09-09T07:24:14;6.57;;;1.08;;
18853;SDS011;9556;49.374;19.446;2022-09-09T07:26:41;3.17;;;1.15;;
18853;SDS011;9556;49.374;19.446;2022-09-09T07:29:10;3.20;;;1.20;;
18853;SDS011;9556;49.374;19.446;2022-09-09T07:31:39;5.40;;;0.82;;
18853;SDS011;9556;49.374;19.446;2022-09-09T07:34:06;1.42;;;0.80;;
18853;SDS011;9556;49.374;19.446;2022-09-09T07:36:34;4.55;;;1.00;;
18853;SDS011;9556;49.374;19.446;2022-09-09T07:39:02;6.05;;;1.23;;
18853;SDS011;9556;49.374;19.446;2022-09-09T07:41:30;5.10;;;1.13;;
18853;SDS011;9556;49.374;19.446;2022-09-09T07:43:59;7.00;;;3.10;;
18853;SDS011;9556;49.374;19.446;2022-09-09T07:46:28;63.92;;;30.73;;
18853;SDS011;9556;49.374;19.446;2022-09-09T07:48:56;68.20;;;33.78;;
18853;SDS011;9556;49.374;19.446;2022-09-09T07:51:24;64.70;;;31.35;;
18853;SDS011;9556;49.374;19.446;2022-09-09T07:53:52;60.53;;;28.80;;
18853;SDS011;9556;49.374;19.446;2022-09-09T07:56:19;70.63;;;27.13;;
18853;SDS011;9556;49.374;19.446;2022-09-09T07:58:47;53.60;;;25.13;;
18853;SDS011;9556;49.374;19.446;2022-09-09T08:01:15;43.13;;;21.98;;
18853;SDS011;9556;49.374;19.446;2022-09-09T08:03:44;38.50;;;20.13;;
18853;SDS011;9556;49.374;19.446;2022-09-09T08:06:12;40.20;;;18.73;;
18853;SDS011;9556;49.374;19.446;2022-09-09T08:08:40;33.13;;;17.75;;
18853;SDS011;9556;49.374;19.446;2022-09-09T08:11:09;31.73;;;15.82;;
18853;SDS011;9556;49.374;19.446;2022-09-09T08:13:37;33.38;;;17.00;;
18853;SDS011;9556;49.374;19.446;2022-09-09T08:16:05;29.15;;;15.40;;
18853;SDS011;9556;49.374;19.446;2022-09-09T08:18:33;28.27;;;14.77;;
18853;SDS011;9556;49.374;19.446;2022-09-09T08:21:08;27.92;;;14.25;;
18853;SDS011;9556;49.374;19.446;2022-09-09T08:23:37;28.15;;;14.55;;
18853;SDS011;9556;49.374;19.446;2022-09-09T08:26:05;25.23;;;13.07;;
18853;SDS011;9556;49.374;19.446;2022-09-09T08:28:34;27.50;;;13.27;;
18853;SDS011;9556;49.374;19.446;2022-09-09T08:31:05;24.02;;;12.15;;
18853;SDS011;9556;49.374;19.446;2022-09-09T08:33:32;64.13;;;13.60;;
18853;SDS011;9556;49.374;19.446;2022-09-09T08:36:01;24.58;;;12.10;;
18853;SDS011;9556;49.374;19.446;2022-09-09T08:38:30;23.73;;;11.13;;
18853;SDS011;9556;49.374;19.446;2022-09-09T08:40:59;20.58;;;10.82;;
18853;SDS011;9556;49.374;19.446;2022-09-09T08:43:27;16.33;;;9.85;;
18853;SDS011;9556;49.374;19.446;2022-09-09T08:45:57;21.95;;;10.35;;
18853;SDS011;9556;49.374;19.446;2022-09-09T08:48:34;18.27;;;9.32;;
18853;SDS011;9556;49.374;19.446;2022-09-09T08:51:06;18.98;;;9.90;;
18853;SDS011;9556;49.374;19.446;2022-09-09T08:53:37;16.85;;;8.85;;
18853;SDS011;9556;49.374;19.446;2022-09-09T08:56:08;19.70;;;9.00;;
18853;SDS011;9556;49.374;19.446;2022-09-09T08:58:39;16.60;;;9.25;;
18853;SDS011;9556;49.374;19.446;2022-09-09T09:01:24;22.63;;;8.32;;
18853;SDS011;9556;49.374;19.446;2022-09-09T09:03:56;14.43;;;8.10;;
18853;SDS011;9556;49.374;19.446;2022-09-09T09:06:30;15.50;;;8.02;;
18853;SDS011;9556;49.374;19.446;2022-09-09T09:09:04;22.05;;;8.23;;
18853;SDS011;9556;49.374;19.446;2022-09-09T09:11:34;18.77;;;7.80;;
18853;SDS011;9556;49.374;19.446;2022-09-09T09:14:02;18.42;;;7.45;;
18853;SDS011;9556;49.374;19.446;2022-09-09T09:16:30;10.27;;;6.32;;
18853;SDS011;9556;49.374;19.446;2022-09-09T09:19:00;9.95;;;5.35;;
18853;SDS011;9556;49.374;19.446;2022-09-09T09:21:29;12.73;;;4.80;;
18853;SDS011;9556;49.374;19.446;2022-09-09T09:24:01;12.82;;;5.65;;
18853;SDS011;9556;49.374;19.446;2022-09-09T09:26:30;11.32;;;5.15;;
18853;SDS011;9556;49.374;19.446;2022-09-09T09:28:58;13.63;;;5.85;;
18853;SDS011;9556;49.374;19.446;2022-09-09T09:31:25;15.07;;;5.97;;
18853;SDS011;9556;49.374;19.446;2022-09-09T09:33:53;11.07;;;4.97;;
18853;SDS011;9556;49.374;19.446;2022-09-09T09:36:20;10.85;;;5.50;;
18853;SDS011;9556;49.374;19.446;2022-09-09T09:38:54;10.18;;;5.28;;
18853;SDS011;9556;49.374;19.446;2022-09-09T09:41:28;11.30;;;5.32;;
18853;SDS011;9556;49.374;19.446;2022-09-09T09:43:57;11.95;;;5.00;;
18853;SDS011;9556;49.374;19.446;2022-09-09T09:46:26;9.75;;;4.82;;
18853;SDS011;9556;49.374;19.446;2022-09-09T09:48:57;9.10;;;4.70;;
18853;SDS011;9556;49.374;19.446;2022-09-09T09:51:25;9.27;;;4.63;;
18853;SDS011;9556;49.374;19.446;2022-09-09T09:53:53;8.90;;;4.60;;
18853;SDS011;9556;49.374;19.446;2022-09-09T09:56:26;8.80;;;4.47;;
18853;SDS011;9556;49.374;19.446;2022-09-09T09:58:53;9.00;;;4.32;;
18853;SDS011;9556;49.374;19.446;2022-09-09T10:01:23;10.35;;;4.47;;
18853;SDS011;9556;49.374;19.446;2022-09-09T10:03:52;8.98;;;4.22;;
18853;SDS011;9556;49.374;19.446;2022-09-09T10:06:28;8.02;;;4.20;;
18853;SDS011;9556;49.374;19.446;2022-09-09T10:08:56;7.15;;;3.83;;
18853;SDS011;9556;49.374;19.446;2022-09-09T10:11:26;7.40;;;3.67;;
18853;SDS011;9556;49.374;19.446;2022-09-09T10:13:59;6.88;;;3.80;;
18853;SDS011;9556;49.374;19.446;2022-09-09T10:16:37;8.55;;;3.72;;
18853;SDS011;9556;49.374;19.446;2022-09-09T10:19:09;7.55;;;3.60;;
18853;SDS011;9556;49.374;19.446;2022-09-09T10:21:50;6.85;;;3.63;;
18853;SDS011;9556;49.374;19.446;2022-09-09T10:24:28;5.68;;;3.45;;
18853;SDS011;9556;49.374;19.446;2022-09-09T10:27:01;7.38;;;3.33;;
18853;SDS011;9556;49.374;19.446;2022-09-09T10:29:38;6.85;;;3.25;;
18853;SDS011;9556;49.374;19.446;2022-09-09T10:32:14;6.30;;;3.08;;
18853;SDS011;9556;49.374;19.446;2022-09-09T10:34:55;7.70;;;3.22;;
18853;SDS011;9556;49.374;19.446;2022-09-09T10:37:27;6.30;;;3.60;;
18853;SDS011;9556;49.374;19.446;2022-09-09T10:39:58;12.50;;;3.42;;
18853;SDS011;9556;49.374;19.446;2022-09-09T10:42:29;7.78;;;3.13;;
18853;SDS011;9556;49.374;19.446;2022-09-09T10:45:02;7.82;;;2.92;;
18853;SDS011;9556;49.374;19.446;2022-09-09T10:47:43;9.45;;;2.80;;
18853;SDS011;9556;49.374;19.446;2022-09-09T10:50:27;8.85;;;3.15;;
18853;SDS011;9556;49.374;19.446;2022-09-09T10:52:58;6.47;;;3.03;;
18853;SDS011;9556;49.374;19.446;2022-09-09T10:55:27;5.60;;;2.72;;
18853;SDS011;9556;49.374;19.446;2022-09-09T10:58:02;5.85;;;2.90;;
18853;SDS011;9556;49.374;19.446;2022-09-09T11:00:31;6.38;;;2.85;;
18853;SDS011;9556;49.374;19.446;2022-09-09T11:03:03;4.72;;;2.65;;
18853;SDS011;9556;49.374;19.446;2022-09-09T11:05:34;4.45;;;2.75;;
18853;SDS011;9556;49.374;19.446;2022-09-09T11:08:05;8.57;;;3.15;;
18853;SDS011;9556;49.374;19.446;2022-09-09T11:10:38;5.35;;;3.05;;
18853;SDS011;9556;49.374;19.446;2022-09-09T11:13:09;3.97;;;2.60;;
18853;SDS011;9556;49.374;19.446;2022-09-09T11:15:39;5.70;;;2.92;;
18853;SDS011;9556;49.374;19.446;2022-09-09T11:18:10;4.10;;;2.30;;
18853;SDS011;9556;49.374;19.446;2022-09-09T11:20:38;4.40;;;2.20;;
18853;SDS011;9556;49.374;19.446;2022-09-09T11:23:09;7.60;;;2.65;;
18853;SDS011;9556;49.374;19.446;2022-09-09T11:25:39;6.93;;;2.60;;
18853;SDS011;9556;49.374;19.446;2022-09-09T11:28:11;13.98;;;2.80;;
18853;SDS011;9556;49.374;19.446;2022-09-09T11:30:44;8.85;;;2.92;;
18853;SDS011;9556;49.374;19.446;2022-09-09T11:33:26;7.47;;;2.58;;
18853;SDS011;9556;49.374;19.446;2022-09-09T11:36:01;13.65;;;2.35;;
18853;SDS011;9556;49.374;19.446;2022-09-09T11:38:32;10.40;;;2.38;;
18853;SDS011;9556;49.374;19.446;2022-09-09T11:41:05;10.38;;;2.38;;
18853;SDS011;9556;49.374;19.446;2022-09-09T11:43:38;8.02;;;2.20;;
18853;SDS011;9556;49.374;19.446;2022-09-09T11:46:06;4.30;;;2.20;;
18853;SDS011;9556;49.374;19.446;2022-09-09T11:48:35;6.43;;;2.25;;
18853;SDS011;9556;49.374;19.446;2022-09-09T11:51:04;7.25;;;2.50;;
18853;SDS011;9556;49.374;19.446;2022-09-09T11:53:32;5.93;;;2.20;;
18853;SDS011;9556;49.374;19.446;2022-09-09T11:56:04;5.55;;;2.08;;
18853;SDS011;9556;49.374;19.446;2022-09-09T11:58:34;6.70;;;2.35;;
18853;SDS011;9556;49.374;19.446;2022-09-09T12:01:12;6.82;;;2.30;;
18853;SDS011;9556;49.374;19.446;2022-09-09T12:03:42;4.72;;;1.90;;
18853;SDS011;9556;49.374;19.446;2022-09-09T12:06:11;4.05;;;1.92;;
18853;SDS011;9556;49.374;19.446;2022-09-09T12:08:40;11.30;;;2.20;;
18853;SDS011;9556;49.374;19.446;2022-09-09T12:11:08;7.53;;;2.20;;
18853;SDS011;9556;49.374;19.446;2022-09-09T12:13:36;6.03;;;2.10;;
18853;SDS011;9556;49.374;19.446;2022-09-09T12:16:03;3.78;;;2.03;;
18853;SDS011;9556;49.374;19.446;2022-09-09T12:18:32;4.68;;;2.10;;
18853;SDS011;9556;49.374;19.446;2022-09-09T12:21:03;5.20;;;2.10;;
18853;SDS011;9556;49.374;19.446;2022-09-09T12:23:38;3.58;;;2.00;;
18853;SDS011;9556;49.374;19.446;2022-09-09T12:26:22;2.60;;;1.55;;
18853;SDS011;9556;49.374;19.446;2022-09-09T12:28:54;3.00;;;1.60;;
18853;SDS011;9556;49.374;19.446;2022-09-09T12:31:24;2.65;;;1.77;;
18853;SDS011;9556;49.374;19.446;2022-09-09T12:33:53;2.50;;;1.60;;
18853;SDS011;9556;49.374;19.446;2022-09-09T12:36:23;3.30;;;1.70;;
18853;SDS011;9556;49.374;19.446;2022-09-09T12:38:51;6.95;;;1.92;;
18853;SDS011;9556;49.374;19.446;2022-09-09T12:41:20;2.80;;;1.88;;
18853;SDS011;9556;49.374;19.446;2022-09-09T12:43:48;2.88;;;1.85;;
18853;SDS011;9556;49.374;19.446;2022-09-09T12:46:19;2.55;;;1.55;;
18853;SDS011;9556;49.374;19.446;2022-09-09T12:48:47;3.10;;;1.67;;
18853;SDS011;9556;49.374;19.446;2022-09-09T12:51:17;2.60;;;1.70;;
18853;SDS011;9556;49.374;19.446;2022-09-09T12:53:46;7.70;;;1.90;;
18853;SDS011;9556;49.374;19.446;2022-09-09T12:56:18;4.18;;;1.75;;
18853;SDS011;9556;49.374;19.446;2022-09-09T12:58:46;3.65;;;1.55;;
18853;SDS011;9556;49.374;19.446;2022-09-09T13:01:18;4.88;;;1.48;;
18853;SDS011;9556;49.374;19.446;2022-09-09T13:03:47;3.10;;;1.73;;
18853;SDS011;9556;49.374;19.446;2022-09-09T13:06:18;2.17;;;1.40;;
18853;SDS011;9556;49.374;19.446;2022-09-09T13:08:47;2.65;;;1.60;;
18853;SDS011;9556;49.374;19.446;2022-09-09T13:11:15;2.22;;;1.20;;
18853;SDS011;9556;49.374;19.446;2022-09-09T13:13:43;3.47;;;1.40;;
18853;SDS011;9556;49.374;19.446;2022-09-09T13:16:20;2.83;;;1.42;;
18853;SDS011;9556;49.374;19.446;2022-09-09T13:18:49;3.22;;;1.50;;
18853;SDS011;9556;49.374;19.446;2022-09-09T13:21:16;3.63;;;1.50;;
18853;SDS011;9556;49.374;19.446;2022-09-09T13:23:49;2.38;;;1.58;;
18853;SDS011;9556;49.374;19.446;2022-09-09T13:26:21;3.45;;;1.40;;
18853;SDS011;9556;49.374;19.446;2022-09-09T13:28:49;3.60;;;1.50;;
18853;SDS011;9556;49.374;19.446;2022-09-09T13:31:20;3.78;;;1.42;;
18853;SDS011;9556;49.374;19.446;2022-09-09T13:33:47;3.72;;;1.40;;
18853;SDS011;9556;49.374;19.446;2022-09-09T13:36:15;2.30;;;1.30;;
18853;SDS011;9556;49.374;19.446;2022-09-09T13:38:54;2.80;;;1.60;;
18853;SDS011;9556;49.374;19.446;2022-09-09T13:41:25;2.88;;;1.60;;
18853;SDS011;9556;49.374;19.446;2022-09-09T13:43:52;2.72;;;1.42;;
18853;SDS011;9556;49.374;19.446;2022-09-09T13:46:25;4.45;;;1.40;;
18853;SDS011;9556;49.374;19.446;2022-09-09T13:48:56;4.47;;;1.38;;
18853;SDS011;9556;49.374;19.446;2022-09-09T13:51:28;2.53;;;1.40;;
18853;SDS011;9556;49.374;19.446;2022-09-09T13:53:57;2.70;;;1.30;;
18853;SDS011;9556;49.374;19.446;2022-09-09T13:56:25;5.47;;;1.30;;
18853;SDS011;9556;49.374;19.446;2022-09-09T13:58:52;4.45;;;1.60;;
18853;SDS011;9556;49.374;19.446;2022-09-09T14:01:19;4.28;;;1.40;;
18853;SDS011;9556;49.374;19.446;2022-09-09T14:03:46;3.28;;;1.50;;
18853;SDS011;9556;49.374;19.446;2022-09-09T14:06:14;3.15;;;1.30;;
18853;SDS011;9556;49.374;19.446;2022-09-09T14:08:41;2.53;;;1.25;;
18853;SDS011;9556;49.374;19.446;2022-09-09T14:11:09;3.70;;;1.27;;
18853;SDS011;9556;49.374;19.446;2022-09-09T14:13:38;2.10;;;1.50;;
18853;SDS011;9556;49.374;19.446;2022-09-09T14:16:05;4.43;;;1.75;;
18853;SDS011;9556;49.374;19.446;2022-09-09T14:18:32;4.03;;;1.40;;
18853;SDS011;9556;49.374;19.446;2022-09-09T14:21:00;3.10;;;1.38;;
18853;SDS011;9556;49.374;19.446;2022-09-09T14:23:27;2.10;;;1.33;;
18853;SDS011;9556;49.374;19.446;2022-09-09T14:25:54;2.03;;;1.30;;
18853;SDS011;9556;49.374;19.446;2022-09-09T14:28:23;2.88;;;1.30;;
18853;SDS011;9556;49.374;19.446;2022-09-09T14:30:50;1.92;;;1.45;;
18853;SDS011;9556;49.374;19.446;2022-09-09T14:33:17;1.50;;;1.23;;
18853;SDS011;9556;49.374;19.446;2022-09-09T14:35:44;2.60;;;1.23;;
18853;SDS011;9556;49.374;19.446;2022-09-09T14:38:11;2.72;;;1.48;;
18853;SDS011;9556;49.374;19.446;2022-09-09T14:40:39;3.58;;;1.70;;
18853;SDS011;9556;49.374;19.446;2022-09-09T14:43:06;2.95;;;1.50;;
18853;SDS011;9556;49.374;19.446;2022-09-09T14:45:35;2.13;;;1.27;;
18853;SDS011;9556;49.374;19.446;2022-09-09T14:48:03;2.35;;;1.30;;
18853;SDS011;9556;49.374;19.446;2022-09-09T14:50:30;17.85;;;8.70;;
18853;SDS011;9556;49.374;19.446;2022-09-09T14:52:57;19.52;;;12.90;;
18853;SDS011;9556;49.374;19.446;2022-09-09T14:55:24;17.08;;;12.18;;
18853;SDS011;9556;49.374;19.446;2022-09-09T14:57:53;5.20;;;3.90;;
18853;SDS011;9556;49.374;19.446;2022-09-09T15:00:20;3.33;;;2.15;;
18853;SDS011;9556;49.374;19.446;2022-09-09T15:02:49;6.32;;;2.58;;